sensor_id;sensor_type;location;lat;lon;timestamp;P1;durP1;ratioP1;P2;durP2;ratioP2
10535;SDS011;5316;49.538;8.352;2024-03-07T00:01:44;39.30;;;28.47;;
10535;SDS011;5316;49.538;8.352;2024-03-07T00:04:12;43.00;;;28.90;;
10535;SDS011;5316;49.538;8.352;2024-03-07T00:06:38;40.47;;;30.50;;
10535;SDS011;5316;49.538;8.352;2024-03-07T00:09:06;41.63;;;31.07;;
10535;SDS011;5316;49.538;8.352;2024-03-07T00:11:34;40.30;;;28.13;;
10535;SDS011;5316;49.538;8.352;2024-03-07T00:14:01;38.73;;;27.60;;
10535;SDS011;5316;49.538;8.352;2024-03-07T00:16:29;37.30;;;28.00;;
10535;SDS011;5316;49.538;8.352;2024-03-07T00:18:57;40.37;;;29.00;;
10535;SDS011;5316;49.538;8.352;2024-03-07T00:21:24;38.90;;;28.50;;
10535;SDS011;5316;49.538;8.352;2024-03-07T00:23:51;36.60;;;27.77;;
10535;SDS011;5316;49.538;8.352;2024-03-07T00:26:19;38.23;;;27.80;;
10535;SDS011;5316;49.538;8.352;2024-03-07T00:28:45;39.33;;;28.53;;
10535;SDS011;5316;49.538;8.352;2024-03-07T00:31:11;38.83;;;28.63;;
10535;SDS011;5316;49.538;8.352;2024-03-07T00:33:39;40.43;;;28.33;;
10535;SDS011;5316;49.538;8.352;2024-03-07T00:36:07;40.87;;;28.20;;
10535;SDS011;5316;49.538;8.352;2024-03-07T00:38:33;40.93;;;28.53;;
10535;SDS011;5316;49.538;8.352;2024-03-07T00:41:00;40.70;;;31.43;;
10535;SDS011;5316;49.538;8.352;2024-03-07T00:43:27;43.60;;;30.73;;
10535;SDS011;5316;49.538;8.352;2024-03-07T00:45:53;40.07;;;29.33;;
10535;SDS011;5316;49.538;8.352;2024-03-07T00:48:21;42.40;;;31.37;;
10535;SDS011;5316;49.538;8.352;2024-03-07T00:50:51;39.60;;;30.23;;
10535;SDS011;5316;49.538;8.352;2024-03-07T00:53:18;44.97;;;29.53;;
10535;SDS011;5316;49.538;8.352;2024-03-07T00:55:45;38.23;;;27.83;;
10535;SDS011;5316;49.538;8.352;2024-03-07T00:58:12;41.43;;;29.77;;
10535;SDS011;5316;49.538;8.352;2024-03-07T01:00:38;35.47;;;27.67;;
10535;SDS011;5316;49.538;8.352;2024-03-07T01:03:08;41.43;;;30.13;;
10535;SDS011;5316;49.538;8.352;2024-03-07T01:05:36;42.40;;;29.57;;
10535;SDS011;5316;49.538;8.352;2024-03-07T01:08:05;41.13;;;29.80;;
10535;SDS011;5316;49.538;8.352;2024-03-07T01:10:32;42.93;;;29.77;;
10535;SDS011;5316;49.538;8.352;2024-03-07T01:12:58;39.23;;;29.90;;
10535;SDS011;5316;49.538;8.352;2024-03-07T01:15:27;37.60;;;28.63;;
10535;SDS011;5316;49.538;8.352;2024-03-07T01:17:53;40.50;;;28.83;;
10535;SDS011;5316;49.538;8.352;2024-03-07T01:20:20;39.00;;;29.60;;
10535;SDS011;5316;49.538;8.352;2024-03-07T01:22:48;40.73;;;28.80;;
10535;SDS011;5316;49.538;8.352;2024-03-07T01:25:17;40.53;;;29.17;;
10535;SDS011;5316;49.538;8.352;2024-03-07T01:27:46;39.23;;;29.53;;
10535;SDS011;5316;49.538;8.352;2024-03-07T01:30:14;40.30;;;29.57;;
10535;SDS011;5316;49.538;8.352;2024-03-07T01:32:41;38.90;;;28.70;;
10535;SDS011;5316;49.538;8.352;2024-03-07T01:35:08;40.67;;;29.57;;
10535;SDS011;5316;49.538;8.352;2024-03-07T01:37:35;39.03;;;28.93;;
10535;SDS011;5316;49.538;8.352;2024-03-07T01:40:02;39.30;;;29.07;;
10535;SDS011;5316;49.538;8.352;2024-03-07T01:42:31;38.67;;;28.67;;
10535;SDS011;5316;49.538;8.352;2024-03-07T01:44:58;39.83;;;28.43;;
10535;SDS011;5316;49.538;8.352;2024-03-07T01:47:25;44.13;;;29.90;;
10535;SDS011;5316;49.538;8.352;2024-03-07T01:49:52;36.70;;;28.50;;
10535;SDS011;5316;49.538;8.352;2024-03-07T01:52:18;38.50;;;28.70;;
10535;SDS011;5316;49.538;8.352;2024-03-07T01:54:46;38.37;;;29.23;;
10535;SDS011;5316;49.538;8.352;2024-03-07T01:57:13;37.57;;;28.53;;
10535;SDS011;5316;49.538;8.352;2024-03-07T01:59:44;37.70;;;29.30;;
10535;SDS011;5316;49.538;8.352;2024-03-07T02:02:11;37.13;;;28.17;;
10535;SDS011;5316;49.538;8.352;2024-03-07T02:04:37;36.57;;;28.07;;
10535;SDS011;5316;49.538;8.352;2024-03-07T02:07:04;42.57;;;29.70;;
10535;SDS011;5316;49.538;8.352;2024-03-07T02:09:31;39.97;;;29.27;;
10535;SDS011;5316;49.538;8.352;2024-03-07T02:11:58;37.67;;;28.87;;
10535;SDS011;5316;49.538;8.352;2024-03-07T02:14:24;38.77;;;28.40;;
10535;SDS011;5316;49.538;8.352;2024-03-07T02:16:53;38.40;;;28.97;;
10535;SDS011;5316;49.538;8.352;2024-03-07T02:19:21;38.33;;;28.20;;
10535;SDS011;5316;49.538;8.352;2024-03-07T02:21:49;40.67;;;29.07;;
10535;SDS011;5316;49.538;8.352;2024-03-07T02:24:16;40.80;;;29.60;;
10535;SDS011;5316;49.538;8.352;2024-03-07T02:26:43;39.47;;;28.37;;
10535;SDS011;5316;49.538;8.352;2024-03-07T02:29:09;42.30;;;29.47;;
10535;SDS011;5316;49.538;8.352;2024-03-07T02:31:36;37.87;;;28.63;;
10535;SDS011;5316;49.538;8.352;2024-03-07T02:34:06;42.90;;;30.13;;
10535;SDS011;5316;49.538;8.352;2024-03-07T02:36:34;36.67;;;28.27;;
10535;SDS011;5316;49.538;8.352;2024-03-07T02:39:02;38.43;;;28.73;;
10535;SDS011;5316;49.538;8.352;2024-03-07T02:41:29;41.23;;;29.80;;
10535;SDS011;5316;49.538;8.352;2024-03-07T02:43:56;39.70;;;28.57;;
10535;SDS011;5316;49.538;8.352;2024-03-07T02:46:23;38.57;;;28.50;;
10535;SDS011;5316;49.538;8.352;2024-03-07T02:48:49;39.90;;;28.87;;
10535;SDS011;5316;49.538;8.352;2024-03-07T02:51:16;38.30;;;29.00;;
10535;SDS011;5316;49.538;8.352;2024-03-07T02:53:43;39.13;;;28.53;;
10535;SDS011;5316;49.538;8.352;2024-03-07T02:56:11;39.97;;;29.57;;
10535;SDS011;5316;49.538;8.352;2024-03-07T02:58:37;39.37;;;29.53;;
10535;SDS011;5316;49.538;8.352;2024-03-07T03:01:04;41.30;;;30.00;;
10535;SDS011;5316;49.538;8.352;2024-03-07T03:03:31;39.10;;;28.83;;
10535;SDS011;5316;49.538;8.352;2024-03-07T03:05:58;41.07;;;29.60;;
10535;SDS011;5316;49.538;8.352;2024-03-07T03:08:25;42.37;;;29.63;;
10535;SDS011;5316;49.538;8.352;2024-03-07T03:10:53;40.80;;;29.63;;
10535;SDS011;5316;49.538;8.352;2024-03-07T03:13:23;37.33;;;28.77;;
10535;SDS011;5316;49.538;8.352;2024-03-07T03:15:52;39.47;;;28.70;;
10535;SDS011;5316;49.538;8.352;2024-03-07T03:18:19;43.83;;;29.07;;
10535;SDS011;5316;49.538;8.352;2024-03-07T03:20:46;43.23;;;29.20;;
10535;SDS011;5316;49.538;8.352;2024-03-07T03:23:13;43.97;;;31.20;;
10535;SDS011;5316;49.538;8.352;2024-03-07T03:25:40;43.77;;;29.90;;
10535;SDS011;5316;49.538;8.352;2024-03-07T03:28:08;41.23;;;29.33;;
10535;SDS011;5316;49.538;8.352;2024-03-07T03:30:37;41.63;;;30.23;;
10535;SDS011;5316;49.538;8.352;2024-03-07T03:33:05;41.30;;;30.13;;
10535;SDS011;5316;49.538;8.352;2024-03-07T03:35:33;43.07;;;30.40;;
10535;SDS011;5316;49.538;8.352;2024-03-07T03:38:00;41.67;;;29.70;;
10535;SDS011;5316;49.538;8.352;2024-03-07T03:40:27;43.33;;;30.87;;
10535;SDS011;5316;49.538;8.352;2024-03-07T03:42:54;42.83;;;30.67;;
10535;SDS011;5316;49.538;8.352;2024-03-07T03:45:21;42.23;;;30.30;;
10535;SDS011;5316;49.538;8.352;2024-03-07T03:47:51;39.53;;;29.60;;
10535;SDS011;5316;49.538;8.352;2024-03-07T03:50:18;42.83;;;30.23;;
10535;SDS011;5316;49.538;8.352;2024-03-07T03:52:45;48.27;;;31.57;;
10535;SDS011;5316;49.538;8.352;2024-03-07T03:55:12;41.03;;;29.93;;
10535;SDS011;5316;49.538;8.352;2024-03-07T03:57:40;44.30;;;30.00;;
10535;SDS011;5316;49.538;8.352;2024-03-07T04:00:08;42.50;;;30.27;;
10535;SDS011;5316;49.538;8.352;2024-03-07T04:02:39;41.63;;;30.90;;
10535;SDS011;5316;49.538;8.352;2024-03-07T04:05:07;39.67;;;29.87;;
10535;SDS011;5316;49.538;8.352;2024-03-07T04:07:35;43.50;;;30.00;;
10535;SDS011;5316;49.538;8.352;2024-03-07T04:10:02;42.00;;;30.07;;
10535;SDS011;5316;49.538;8.352;2024-03-07T04:12:31;44.30;;;30.47;;
10535;SDS011;5316;49.538;8.352;2024-03-07T04:14:59;42.27;;;30.87;;
10535;SDS011;5316;49.538;8.352;2024-03-07T04:17:26;46.03;;;30.30;;
10535;SDS011;5316;49.538;8.352;2024-03-07T04:19:53;41.63;;;29.97;;
10535;SDS011;5316;49.538;8.352;2024-03-07T04:22:21;44.80;;;31.70;;
10535;SDS011;5316;49.538;8.352;2024-03-07T04:24:48;45.23;;;30.83;;
10535;SDS011;5316;49.538;8.352;2024-03-07T04:27:19;41.17;;;28.90;;
10535;SDS011;5316;49.538;8.352;2024-03-07T04:29:47;44.43;;;30.63;;
10535;SDS011;5316;49.538;8.352;2024-03-07T04:32:14;44.70;;;31.53;;
10535;SDS011;5316;49.538;8.352;2024-03-07T04:34:42;42.73;;;30.10;;
10535;SDS011;5316;49.538;8.352;2024-03-07T04:37:09;43.70;;;30.40;;
10535;SDS011;5316;49.538;8.352;2024-03-07T04:39:37;45.70;;;31.23;;
10535;SDS011;5316;49.538;8.352;2024-03-07T04:42:05;44.20;;;30.93;;
10535;SDS011;5316;49.538;8.352;2024-03-07T04:44:33;45.63;;;31.40;;
10535;SDS011;5316;49.538;8.352;2024-03-07T04:47:01;42.37;;;30.40;;
10535;SDS011;5316;49.538;8.352;2024-03-07T04:49:29;43.60;;;31.13;;
10535;SDS011;5316;49.538;8.352;2024-03-07T04:51:57;47.53;;;31.53;;
10535;SDS011;5316;49.538;8.352;2024-03-07T04:54:26;47.33;;;31.23;;
10535;SDS011;5316;49.538;8.352;2024-03-07T04:56:54;47.53;;;31.20;;
10535;SDS011;5316;49.538;8.352;2024-03-07T04:59:21;45.20;;;32.40;;
10535;SDS011;5316;49.538;8.352;2024-03-07T05:01:49;50.80;;;33.07;;
10535;SDS011;5316;49.538;8.352;2024-03-07T05:04:16;47.53;;;30.37;;
10535;SDS011;5316;49.538;8.352;2024-03-07T05:06:44;46.27;;;31.40;;
10535;SDS011;5316;49.538;8.352;2024-03-07T05:09:13;46.40;;;31.30;;
10535;SDS011;5316;49.538;8.352;2024-03-07T05:11:48;50.00;;;34.60;;
10535;SDS011;5316;49.538;8.352;2024-03-07T05:14:18;50.53;;;32.60;;
10535;SDS011;5316;49.538;8.352;2024-03-07T05:16:45;48.20;;;33.13;;
10535;SDS011;5316;49.538;8.352;2024-03-07T05:19:26;47.07;;;33.57;;
10535;SDS011;5316;49.538;8.352;2024-03-07T05:21:54;51.17;;;33.97;;
10535;SDS011;5316;49.538;8.352;2024-03-07T05:24:21;47.50;;;30.23;;
10535;SDS011;5316;49.538;8.352;2024-03-07T05:26:48;47.60;;;31.90;;
10535;SDS011;5316;49.538;8.352;2024-03-07T05:29:17;45.13;;;30.83;;
10535;SDS011;5316;49.538;8.352;2024-03-07T05:31:44;43.60;;;30.73;;
10535;SDS011;5316;49.538;8.352;2024-03-07T05:34:12;48.87;;;31.90;;
10535;SDS011;5316;49.538;8.352;2024-03-07T05:36:40;45.03;;;31.23;;
10535;SDS011;5316;49.538;8.352;2024-03-07T05:39:09;46.23;;;30.97;;
10535;SDS011;5316;49.538;8.352;2024-03-07T05:41:36;45.70;;;31.77;;
10535;SDS011;5316;49.538;8.352;2024-03-07T05:44:03;44.10;;;29.80;;
10535;SDS011;5316;49.538;8.352;2024-03-07T05:46:34;46.73;;;30.37;;
10535;SDS011;5316;49.538;8.352;2024-03-07T05:49:06;47.97;;;31.97;;
10535;SDS011;5316;49.538;8.352;2024-03-07T05:51:33;45.43;;;31.13;;
10535;SDS011;5316;49.538;8.352;2024-03-07T05:53:59;47.60;;;31.43;;
10535;SDS011;5316;49.538;8.352;2024-03-07T05:56:27;44.37;;;30.83;;
10535;SDS011;5316;49.538;8.352;2024-03-07T05:58:54;46.90;;;31.13;;
10535;SDS011;5316;49.538;8.352;2024-03-07T06:01:20;45.10;;;30.73;;
10535;SDS011;5316;49.538;8.352;2024-03-07T06:03:51;54.40;;;31.70;;
10535;SDS011;5316;49.538;8.352;2024-03-07T06:06:19;46.93;;;30.90;;
10535;SDS011;5316;49.538;8.352;2024-03-07T06:08:46;41.13;;;28.73;;
10535;SDS011;5316;49.538;8.352;2024-03-07T06:11:13;43.77;;;30.87;;
10535;SDS011;5316;49.538;8.352;2024-03-07T06:13:44;43.50;;;29.73;;
10535;SDS011;5316;49.538;8.352;2024-03-07T06:16:12;43.47;;;30.07;;
10535;SDS011;5316;49.538;8.352;2024-03-07T06:18:39;43.87;;;30.37;;
10535;SDS011;5316;49.538;8.352;2024-03-07T06:21:07;45.27;;;31.23;;
10535;SDS011;5316;49.538;8.352;2024-03-07T06:23:34;42.00;;;28.97;;
10535;SDS011;5316;49.538;8.352;2024-03-07T06:26:01;43.70;;;30.37;;
10535;SDS011;5316;49.538;8.352;2024-03-07T06:28:37;45.13;;;30.67;;
10535;SDS011;5316;49.538;8.352;2024-03-07T06:31:04;44.70;;;30.13;;
10535;SDS011;5316;49.538;8.352;2024-03-07T06:33:32;46.33;;;30.37;;
10535;SDS011;5316;49.538;8.352;2024-03-07T06:35:59;46.50;;;29.80;;
10535;SDS011;5316;49.538;8.352;2024-03-07T06:38:28;43.07;;;30.17;;
10535;SDS011;5316;49.538;8.352;2024-03-07T06:40:55;43.07;;;29.50;;
10535;SDS011;5316;49.538;8.352;2024-03-07T06:43:22;44.63;;;29.83;;
10535;SDS011;5316;49.538;8.352;2024-03-07T06:45:48;44.20;;;30.30;;
10535;SDS011;5316;49.538;8.352;2024-03-07T06:48:15;47.23;;;31.50;;
10535;SDS011;5316;49.538;8.352;2024-03-07T06:50:42;44.10;;;30.43;;
10535;SDS011;5316;49.538;8.352;2024-03-07T06:53:09;45.27;;;30.97;;
10535;SDS011;5316;49.538;8.352;2024-03-07T06:55:37;50.23;;;31.37;;
10535;SDS011;5316;49.538;8.352;2024-03-07T06:58:04;45.87;;;31.03;;
10535;SDS011;5316;49.538;8.352;2024-03-07T07:00:31;47.13;;;30.90;;
10535;SDS011;5316;49.538;8.352;2024-03-07T07:03:00;43.50;;;30.07;;
10535;SDS011;5316;49.538;8.352;2024-03-07T07:05:29;44.03;;;30.87;;
10535;SDS011;5316;49.538;8.352;2024-03-07T07:07:56;46.83;;;31.60;;
10535;SDS011;5316;49.538;8.352;2024-03-07T07:10:23;46.63;;;32.00;;
10535;SDS011;5316;49.538;8.352;2024-03-07T07:12:51;51.30;;;33.40;;
10535;SDS011;5316;49.538;8.352;2024-03-07T07:15:20;47.83;;;31.57;;
10535;SDS011;5316;49.538;8.352;2024-03-07T07:17:47;44.93;;;30.43;;
10535;SDS011;5316;49.538;8.352;2024-03-07T07:20:15;40.87;;;29.43;;
10535;SDS011;5316;49.538;8.352;2024-03-07T07:22:42;44.37;;;29.50;;
10535;SDS011;5316;49.538;8.352;2024-03-07T07:25:10;44.13;;;29.83;;
10535;SDS011;5316;49.538;8.352;2024-03-07T07:27:43;39.07;;;27.23;;
10535;SDS011;5316;49.538;8.352;2024-03-07T07:30:13;40.60;;;29.03;;
10535;SDS011;5316;49.538;8.352;2024-03-07T07:32:41;39.63;;;29.03;;
10535;SDS011;5316;49.538;8.352;2024-03-07T07:35:10;40.27;;;28.27;;
10535;SDS011;5316;49.538;8.352;2024-03-07T07:37:38;38.20;;;27.30;;
10535;SDS011;5316;49.538;8.352;2024-03-07T07:40:05;39.33;;;26.33;;
10535;SDS011;5316;49.538;8.352;2024-03-07T07:42:34;36.30;;;27.27;;
10535;SDS011;5316;49.538;8.352;2024-03-07T07:45:03;40.20;;;26.87;;
10535;SDS011;5316;49.538;8.352;2024-03-07T07:47:33;37.47;;;27.13;;
10535;SDS011;5316;49.538;8.352;2024-03-07T07:50:02;41.43;;;27.80;;
10535;SDS011;5316;49.538;8.352;2024-03-07T07:52:32;35.33;;;26.23;;
10535;SDS011;5316;49.538;8.352;2024-03-07T07:55:00;37.93;;;24.87;;
10535;SDS011;5316;49.538;8.352;2024-03-07T07:57:27;37.10;;;25.50;;
10535;SDS011;5316;49.538;8.352;2024-03-07T07:59:54;37.33;;;25.63;;
10535;SDS011;5316;49.538;8.352;2024-03-07T08:02:21;34.80;;;24.93;;
10535;SDS011;5316;49.538;8.352;2024-03-07T08:04:49;34.03;;;25.10;;
10535;SDS011;5316;49.538;8.352;2024-03-07T08:07:16;34.30;;;24.53;;
10535;SDS011;5316;49.538;8.352;2024-03-07T08:09:43;33.70;;;24.80;;
10535;SDS011;5316;49.538;8.352;2024-03-07T08:12:10;31.83;;;23.67;;
10535;SDS011;5316;49.538;8.352;2024-03-07T08:14:37;32.47;;;24.80;;
10535;SDS011;5316;49.538;8.352;2024-03-07T08:17:04;99.47;;;33.20;;
10535;SDS011;5316;49.538;8.352;2024-03-07T08:19:31;37.57;;;23.33;;
10535;SDS011;5316;49.538;8.352;2024-03-07T08:21:59;39.23;;;23.57;;
10535;SDS011;5316;49.538;8.352;2024-03-07T08:24:26;30.10;;;23.10;;
10535;SDS011;5316;49.538;8.352;2024-03-07T08:26:53;27.40;;;21.97;;
10535;SDS011;5316;49.538;8.352;2024-03-07T08:29:21;29.17;;;21.70;;
10535;SDS011;5316;49.538;8.352;2024-03-07T08:31:49;29.70;;;21.77;;
10535;SDS011;5316;49.538;8.352;2024-03-07T08:34:15;30.13;;;23.47;;
10535;SDS011;5316;49.538;8.352;2024-03-07T08:36:42;31.00;;;22.27;;
10535;SDS011;5316;49.538;8.352;2024-03-07T08:39:11;33.37;;;22.20;;
10535;SDS011;5316;49.538;8.352;2024-03-07T08:41:38;28.30;;;20.77;;
10535;SDS011;5316;49.538;8.352;2024-03-07T08:44:07;26.43;;;18.23;;
10535;SDS011;5316;49.538;8.352;2024-03-07T08:46:34;22.57;;;18.80;;
10535;SDS011;5316;49.538;8.352;2024-03-07T08:49:01;22.77;;;17.50;;
10535;SDS011;5316;49.538;8.352;2024-03-07T08:51:28;21.10;;;17.50;;
10535;SDS011;5316;49.538;8.352;2024-03-07T08:53:55;23.30;;;17.60;;
10535;SDS011;5316;49.538;8.352;2024-03-07T08:56:23;19.37;;;16.47;;
10535;SDS011;5316;49.538;8.352;2024-03-07T08:58:49;18.17;;;14.87;;
10535;SDS011;5316;49.538;8.352;2024-03-07T09:01:16;19.23;;;13.93;;
10535;SDS011;5316;49.538;8.352;2024-03-07T09:03:43;17.03;;;14.50;;
10535;SDS011;5316;49.538;8.352;2024-03-07T09:06:09;20.53;;;14.33;;
10535;SDS011;5316;49.538;8.352;2024-03-07T09:08:38;20.73;;;14.97;;
10535;SDS011;5316;49.538;8.352;2024-03-07T09:11:05;18.70;;;14.23;;
10535;SDS011;5316;49.538;8.352;2024-03-07T09:13:33;18.20;;;13.37;;
10535;SDS011;5316;49.538;8.352;2024-03-07T09:16:00;16.47;;;13.10;;
10535;SDS011;5316;49.538;8.352;2024-03-07T09:18:30;15.37;;;12.93;;
10535;SDS011;5316;49.538;8.352;2024-03-07T09:20:57;16.10;;;12.73;;
10535;SDS011;5316;49.538;8.352;2024-03-07T09:23:23;13.93;;;12.53;;
10535;SDS011;5316;49.538;8.352;2024-03-07T09:25:50;15.87;;;13.17;;
10535;SDS011;5316;49.538;8.352;2024-03-07T09:28:17;16.23;;;13.40;;
10535;SDS011;5316;49.538;8.352;2024-03-07T09:30:45;15.60;;;13.27;;
10535;SDS011;5316;49.538;8.352;2024-03-07T09:33:11;17.20;;;12.47;;
10535;SDS011;5316;49.538;8.352;2024-03-07T09:35:41;18.13;;;14.10;;
10535;SDS011;5316;49.538;8.352;2024-03-07T09:38:08;15.87;;;11.93;;
10535;SDS011;5316;49.538;8.352;2024-03-07T09:40:36;14.40;;;12.90;;
10535;SDS011;5316;49.538;8.352;2024-03-07T09:43:03;20.53;;;14.97;;
10535;SDS011;5316;49.538;8.352;2024-03-07T09:45:32;16.57;;;14.00;;
10535;SDS011;5316;49.538;8.352;2024-03-07T09:48:02;15.40;;;13.10;;
10535;SDS011;5316;49.538;8.352;2024-03-07T09:50:29;16.10;;;13.30;;
10535;SDS011;5316;49.538;8.352;2024-03-07T09:52:56;17.00;;;14.63;;
10535;SDS011;5316;49.538;8.352;2024-03-07T09:55:25;16.40;;;13.27;;
10535;SDS011;5316;49.538;8.352;2024-03-07T09:57:52;15.87;;;13.33;;
10535;SDS011;5316;49.538;8.352;2024-03-07T10:00:20;17.30;;;13.27;;
10535;SDS011;5316;49.538;8.352;2024-03-07T10:02:50;17.47;;;14.03;;
10535;SDS011;5316;49.538;8.352;2024-03-07T10:05:22;27.13;;;18.67;;
10535;SDS011;5316;49.538;8.352;2024-03-07T10:07:52;38.00;;;25.27;;
10535;SDS011;5316;49.538;8.352;2024-03-07T10:10:19;16.40;;;14.17;;
10535;SDS011;5316;49.538;8.352;2024-03-07T10:12:47;19.23;;;14.60;;
10535;SDS011;5316;49.538;8.352;2024-03-07T10:15:14;18.30;;;14.40;;
10535;SDS011;5316;49.538;8.352;2024-03-07T10:17:42;18.90;;;14.13;;
10535;SDS011;5316;49.538;8.352;2024-03-07T10:20:11;17.43;;;14.33;;
10535;SDS011;5316;49.538;8.352;2024-03-07T10:22:40;21.30;;;15.23;;
10535;SDS011;5316;49.538;8.352;2024-03-07T10:25:07;20.83;;;15.37;;
10535;SDS011;5316;49.538;8.352;2024-03-07T10:27:35;18.17;;;14.30;;
10535;SDS011;5316;49.538;8.352;2024-03-07T10:30:03;19.23;;;14.27;;
10535;SDS011;5316;49.538;8.352;2024-03-07T10:32:32;19.50;;;15.17;;
10535;SDS011;5316;49.538;8.352;2024-03-07T10:34:59;19.97;;;14.97;;
10535;SDS011;5316;49.538;8.352;2024-03-07T10:37:28;22.60;;;15.53;;
10535;SDS011;5316;49.538;8.352;2024-03-07T10:39:57;20.07;;;15.17;;
10535;SDS011;5316;49.538;8.352;2024-03-07T10:42:23;18.83;;;14.87;;
10535;SDS011;5316;49.538;8.352;2024-03-07T10:44:58;19.13;;;14.20;;
10535;SDS011;5316;49.538;8.352;2024-03-07T10:47:29;16.80;;;14.60;;
10535;SDS011;5316;49.538;8.352;2024-03-07T10:50:04;17.40;;;14.23;;
10535;SDS011;5316;49.538;8.352;2024-03-07T10:52:40;16.97;;;13.53;;
10535;SDS011;5316;49.538;8.352;2024-03-07T10:55:18;18.90;;;14.13;;
10535;SDS011;5316;49.538;8.352;2024-03-07T10:57:52;19.20;;;14.03;;
10535;SDS011;5316;49.538;8.352;2024-03-07T11:00:27;16.40;;;14.13;;
10535;SDS011;5316;49.538;8.352;2024-03-07T11:03:01;16.77;;;14.30;;
10535;SDS011;5316;49.538;8.352;2024-03-07T11:05:32;19.97;;;14.97;;
10535;SDS011;5316;49.538;8.352;2024-03-07T11:07:59;19.53;;;15.57;;
10535;SDS011;5316;49.538;8.352;2024-03-07T11:10:33;21.17;;;14.93;;
10535;SDS011;5316;49.538;8.352;2024-03-07T11:13:01;17.57;;;14.40;;
10535;SDS011;5316;49.538;8.352;2024-03-07T11:15:29;17.33;;;14.43;;
10535;SDS011;5316;49.538;8.352;2024-03-07T11:17:56;17.37;;;13.83;;
10535;SDS011;5316;49.538;8.352;2024-03-07T11:20:24;19.23;;;14.97;;
10535;SDS011;5316;49.538;8.352;2024-03-07T11:22:52;18.93;;;15.10;;
10535;SDS011;5316;49.538;8.352;2024-03-07T11:25:20;18.13;;;14.63;;
10535;SDS011;5316;49.538;8.352;2024-03-07T11:27:52;18.63;;;15.33;;
10535;SDS011;5316;49.538;8.352;2024-03-07T11:30:21;18.80;;;15.27;;
10535;SDS011;5316;49.538;8.352;2024-03-07T11:32:49;18.70;;;16.00;;
10535;SDS011;5316;49.538;8.352;2024-03-07T11:35:18;18.87;;;15.00;;
10535;SDS011;5316;49.538;8.352;2024-03-07T11:37:50;19.73;;;16.07;;
10535;SDS011;5316;49.538;8.352;2024-03-07T11:43:15;22.87;;;18.03;;
10535;SDS011;5316;49.538;8.352;2024-03-07T11:45:42;20.90;;;16.20;;
10535;SDS011;5316;49.538;8.352;2024-03-07T11:48:17;21.20;;;15.87;;
10535;SDS011;5316;49.538;8.352;2024-03-07T11:50:45;22.40;;;16.27;;
10535;SDS011;5316;49.538;8.352;2024-03-07T11:53:14;19.93;;;15.80;;
10535;SDS011;5316;49.538;8.352;2024-03-07T11:55:42;18.23;;;15.63;;
10535;SDS011;5316;49.538;8.352;2024-03-07T11:58:11;21.47;;;16.80;;
10535;SDS011;5316;49.538;8.352;2024-03-07T12:00:43;20.97;;;16.20;;
10535;SDS011;5316;49.538;8.352;2024-03-07T12:03:11;21.40;;;16.23;;
10535;SDS011;5316;49.538;8.352;2024-03-07T12:05:42;20.57;;;17.00;;
10535;SDS011;5316;49.538;8.352;2024-03-07T12:08:09;19.37;;;16.90;;
10535;SDS011;5316;49.538;8.352;2024-03-07T12:10:37;21.37;;;16.20;;
10535;SDS011;5316;49.538;8.352;2024-03-07T12:13:05;21.37;;;16.20;;
10535;SDS011;5316;49.538;8.352;2024-03-07T12:15:32;21.13;;;17.00;;
10535;SDS011;5316;49.538;8.352;2024-03-07T12:18:02;19.77;;;16.13;;
10535;SDS011;5316;49.538;8.352;2024-03-07T12:20:34;20.03;;;15.93;;
10535;SDS011;5316;49.538;8.352;2024-03-07T12:23:02;20.57;;;16.43;;
10535;SDS011;5316;49.538;8.352;2024-03-07T12:25:33;20.00;;;15.20;;
10535;SDS011;5316;49.538;8.352;2024-03-07T12:28:05;19.53;;;16.13;;
10535;SDS011;5316;49.538;8.352;2024-03-07T12:30:36;17.33;;;15.50;;
10535;SDS011;5316;49.538;8.352;2024-03-07T12:33:16;26.40;;;17.90;;
10535;SDS011;5316;49.538;8.352;2024-03-07T12:35:43;21.60;;;16.53;;
10535;SDS011;5316;49.538;8.352;2024-03-07T12:38:11;26.37;;;18.63;;
10535;SDS011;5316;49.538;8.352;2024-03-07T12:40:41;20.27;;;16.67;;
10535;SDS011;5316;49.538;8.352;2024-03-07T12:43:14;21.10;;;16.73;;
10535;SDS011;5316;49.538;8.352;2024-03-07T12:45:43;23.63;;;17.57;;
10535;SDS011;5316;49.538;8.352;2024-03-07T12:48:10;18.97;;;16.17;;
10535;SDS011;5316;49.538;8.352;2024-03-07T12:50:40;19.20;;;15.80;;
10535;SDS011;5316;49.538;8.352;2024-03-07T12:53:07;19.00;;;15.83;;
10535;SDS011;5316;49.538;8.352;2024-03-07T12:55:37;17.43;;;14.20;;
10535;SDS011;5316;49.538;8.352;2024-03-07T12:58:06;18.63;;;14.70;;
10535;SDS011;5316;49.538;8.352;2024-03-07T13:00:34;18.30;;;15.07;;
10535;SDS011;5316;49.538;8.352;2024-03-07T13:03:01;18.77;;;14.63;;
10535;SDS011;5316;49.538;8.352;2024-03-07T13:05:28;20.17;;;15.07;;
10535;SDS011;5316;49.538;8.352;2024-03-07T13:07:56;21.67;;;16.10;;
10535;SDS011;5316;49.538;8.352;2024-03-07T13:10:23;16.13;;;14.43;;
10535;SDS011;5316;49.538;8.352;2024-03-07T13:12:50;16.37;;;13.63;;
10535;SDS011;5316;49.538;8.352;2024-03-07T13:15:17;16.67;;;14.07;;
10535;SDS011;5316;49.538;8.352;2024-03-07T13:17:46;18.00;;;13.70;;
10535;SDS011;5316;49.538;8.352;2024-03-07T13:20:14;16.90;;;13.53;;
10535;SDS011;5316;49.538;8.352;2024-03-07T13:22:42;24.90;;;18.57;;
10535;SDS011;5316;49.538;8.352;2024-03-07T13:25:15;15.73;;;13.40;;
10535;SDS011;5316;49.538;8.352;2024-03-07T13:27:51;15.33;;;12.90;;
10535;SDS011;5316;49.538;8.352;2024-03-07T13:30:22;14.50;;;11.37;;
10535;SDS011;5316;49.538;8.352;2024-03-07T13:32:52;12.77;;;11.00;;
10535;SDS011;5316;49.538;8.352;2024-03-07T13:35:20;15.53;;;10.60;;
10535;SDS011;5316;49.538;8.352;2024-03-07T13:37:47;12.97;;;11.23;;
10535;SDS011;5316;49.538;8.352;2024-03-07T13:40:16;12.03;;;10.40;;
10535;SDS011;5316;49.538;8.352;2024-03-07T13:42:53;13.93;;;11.43;;
10535;SDS011;5316;49.538;8.352;2024-03-07T13:45:30;12.87;;;10.61;;
10535;SDS011;5316;49.538;8.352;2024-03-07T13:48:01;11.37;;;10.13;;
10535;SDS011;5316;49.538;8.352;2024-03-07T13:50:30;16.47;;;11.13;;
10535;SDS011;5316;49.538;8.352;2024-03-07T13:52:59;10.63;;;9.53;;
10535;SDS011;5316;49.538;8.352;2024-03-07T13:55:46;11.40;;;9.80;;
10535;SDS011;5316;49.538;8.352;2024-03-07T13:58:20;11.93;;;10.13;;
10535;SDS011;5316;49.538;8.352;2024-03-07T14:01:02;11.97;;;9.77;;
10535;SDS011;5316;49.538;8.352;2024-03-07T14:03:51;11.17;;;9.73;;
10535;SDS011;5316;49.538;8.352;2024-03-07T14:06:42;10.80;;;9.43;;
10535;SDS011;5316;49.538;8.352;2024-03-07T14:09:24;13.27;;;10.40;;
10535;SDS011;5316;49.538;8.352;2024-03-07T14:15:19;13.37;;;10.40;;
10535;SDS011;5316;49.538;8.352;2024-03-07T14:24:46;16.20;;;11.37;;
10535;SDS011;5316;49.538;8.352;2024-03-07T14:27:32;15.37;;;11.23;;
10535;SDS011;5316;49.538;8.352;2024-03-07T14:30:11;14.10;;;10.73;;
10535;SDS011;5316;49.538;8.352;2024-03-07T14:32:51;14.53;;;11.47;;
10535;SDS011;5316;49.538;8.352;2024-03-07T14:35:22;13.60;;;11.03;;
10535;SDS011;5316;49.538;8.352;2024-03-07T14:37:55;15.27;;;11.80;;
10535;SDS011;5316;49.538;8.352;2024-03-07T14:40:31;14.70;;;10.90;;
10535;SDS011;5316;49.538;8.352;2024-03-07T14:42:58;14.53;;;11.37;;
10535;SDS011;5316;49.538;8.352;2024-03-07T14:45:32;12.13;;;10.57;;
10535;SDS011;5316;49.538;8.352;2024-03-07T14:48:03;14.47;;;10.73;;
10535;SDS011;5316;49.538;8.352;2024-03-07T14:50:34;13.40;;;10.93;;
10535;SDS011;5316;49.538;8.352;2024-03-07T14:53:01;16.13;;;12.07;;
10535;SDS011;5316;49.538;8.352;2024-03-07T14:55:29;15.63;;;11.90;;
10535;SDS011;5316;49.538;8.352;2024-03-07T14:57:57;16.10;;;12.00;;